sensor_id;sensor_type;location;lat;lon;timestamp;P1;durP1;ratioP1;P2;durP2;ratioP2
49396;SDS011;35615;41.410;2.194;2023-05-10T00:01:44;3.67;;;1.70;;
49396;SDS011;35615;41.410;2.194;2023-05-10T00:04:12;5.18;;;2.65;;
49396;SDS011;35615;41.410;2.194;2023-05-10T00:06:39;3.42;;;1.85;;
49396;SDS011;35615;41.410;2.194;2023-05-10T00:09:06;6.07;;;1.67;;
49396;SDS011;35615;41.410;2.194;2023-05-10T00:11:36;4.72;;;2.05;;
49396;SDS011;35615;41.410;2.194;2023-05-10T00:14:06;4.47;;;2.38;;
49396;SDS011;35615;41.410;2.194;2023-05-10T00:16:35;4.38;;;1.90;;
49396;SDS011;35615;41.410;2.194;2023-05-10T00:19:02;3.85;;;2.10;;
49396;SDS011;35615;41.410;2.194;2023-05-10T00:21:29;5.70;;;2.80;;
49396;SDS011;35615;41.410;2.194;2023-05-10T00:23:57;4.70;;;1.70;;
49396;SDS011;35615;41.410;2.194;2023-05-10T00:26:24;7.78;;;2.42;;
49396;SDS011;35615;41.410;2.194;2023-05-10T00:28:54;4.40;;;1.75;;
49396;SDS011;35615;41.410;2.194;2023-05-10T00:31:21;7.63;;;2.25;;
49396;SDS011;35615;41.410;2.194;2023-05-10T00:33:49;8.38;;;2.40;;
49396;SDS011;35615;41.410;2.194;2023-05-10T00:36:16;5.93;;;2.67;;
49396;SDS011;35615;41.410;2.194;2023-05-10T00:38:43;4.10;;;3.45;;
49396;SDS011;35615;41.410;2.194;2023-05-10T00:41:14;6.68;;;3.75;;
49396;SDS011;35615;41.410;2.194;2023-05-10T00:43:48;6.57;;;3.92;;
49396;SDS011;35615;41.410;2.194;2023-05-10T00:46:18;8.65;;;4.00;;
49396;SDS011;35615;41.410;2.194;2023-05-10T00:48:48;7.47;;;3.83;;
49396;SDS011;35615;41.410;2.194;2023-05-10T00:51:16;9.40;;;3.95;;
49396;SDS011;35615;41.410;2.194;2023-05-10T00:53:46;6.18;;;3.92;;
49396;SDS011;35615;41.410;2.194;2023-05-10T00:56:13;8.02;;;3.85;;
49396;SDS011;35615;41.410;2.194;2023-05-10T00:58:42;12.38;;;4.45;;
49396;SDS011;35615;41.410;2.194;2023-05-10T01:01:10;6.70;;;3.63;;
49396;SDS011;35615;41.410;2.194;2023-05-10T01:03:37;3.95;;;3.30;;
49396;SDS011;35615;41.410;2.194;2023-05-10T01:06:06;7.00;;;4.20;;
49396;SDS011;35615;41.410;2.194;2023-05-10T01:08:36;6.88;;;3.60;;
49396;SDS011;35615;41.410;2.194;2023-05-10T01:11:06;8.93;;;4.18;;
49396;SDS011;35615;41.410;2.194;2023-05-10T01:13:34;5.85;;;3.22;;
49396;SDS011;35615;41.410;2.194;2023-05-10T01:16:04;8.13;;;3.45;;
49396;SDS011;35615;41.410;2.194;2023-05-10T01:18:37;8.27;;;3.78;;
49396;SDS011;35615;41.410;2.194;2023-05-10T01:28:58;7.32;;;4.38;;
49396;SDS011;35615;41.410;2.194;2023-05-10T01:32:02;8.05;;;4.18;;
49396;SDS011;35615;41.410;2.194;2023-05-10T01:35:19;8.15;;;2.85;;
49396;SDS011;35615;41.410;2.194;2023-05-10T01:38:02;10.00;;;2.35;;
49396;SDS011;35615;41.410;2.194;2023-05-10T01:40:48;5.07;;;1.77;;
49396;SDS011;35615;41.410;2.194;2023-05-10T01:43:26;5.72;;;2.08;;
49396;SDS011;35615;41.410;2.194;2023-05-10T01:48:30;5.25;;;2.20;;
49396;SDS011;35615;41.410;2.194;2023-05-10T01:50:59;8.57;;;2.35;;
49396;SDS011;35615;41.410;2.194;2023-05-10T01:53:27;4.18;;;2.25;;
49396;SDS011;35615;41.410;2.194;2023-05-10T01:55:55;3.35;;;2.13;;
49396;SDS011;35615;41.410;2.194;2023-05-10T01:58:25;5.22;;;2.55;;
49396;SDS011;35615;41.410;2.194;2023-05-10T02:00:56;3.55;;;2.00;;
49396;SDS011;35615;41.410;2.194;2023-05-10T02:03:30;4.13;;;2.00;;
49396;SDS011;35615;41.410;2.194;2023-05-10T02:05:59;4.70;;;1.92;;
49396;SDS011;35615;41.410;2.194;2023-05-10T02:08:26;2.17;;;1.70;;
49396;SDS011;35615;41.410;2.194;2023-05-10T02:10:56;2.63;;;1.70;;
49396;SDS011;35615;41.410;2.194;2023-05-10T02:13:26;7.47;;;2.17;;
49396;SDS011;35615;41.410;2.194;2023-05-10T02:15:56;4.38;;;1.75;;
49396;SDS011;35615;41.410;2.194;2023-05-10T02:18:27;4.80;;;1.88;;
49396;SDS011;35615;41.410;2.194;2023-05-10T02:20:54;7.82;;;1.70;;
49396;SDS011;35615;41.410;2.194;2023-05-10T02:23:23;3.30;;;1.70;;
49396;SDS011;35615;41.410;2.194;2023-05-10T02:25:58;3.83;;;1.80;;
49396;SDS011;35615;41.410;2.194;2023-05-10T02:28:27;4.53;;;1.90;;
49396;SDS011;35615;41.410;2.194;2023-05-10T02:30:58;4.47;;;1.52;;
49396;SDS011;35615;41.410;2.194;2023-05-10T02:33:26;4.70;;;1.60;;
49396;SDS011;35615;41.410;2.194;2023-05-10T02:35:55;2.22;;;1.48;;
49396;SDS011;35615;41.410;2.194;2023-05-10T02:38:28;4.40;;;1.55;;
49396;SDS011;35615;41.410;2.194;2023-05-10T02:40:57;2.75;;;1.70;;
49396;SDS011;35615;41.410;2.194;2023-05-10T02:43:30;1.80;;;1.00;;
49396;SDS011;35615;41.410;2.194;2023-05-10T02:46:00;3.17;;;1.20;;
49396;SDS011;35615;41.410;2.194;2023-05-10T02:48:28;2.47;;;1.45;;
49396;SDS011;35615;41.410;2.194;2023-05-10T02:50:56;3.50;;;1.65;;
49396;SDS011;35615;41.410;2.194;2023-05-10T02:53:31;1.48;;;0.93;;
49396;SDS011;35615;41.410;2.194;2023-05-10T02:56:04;7.05;;;2.25;;
49396;SDS011;35615;41.410;2.194;2023-05-10T02:58:33;5.38;;;1.60;;
49396;SDS011;35615;41.410;2.194;2023-05-10T03:01:01;6.38;;;1.80;;
49396;SDS011;35615;41.410;2.194;2023-05-10T03:03:31;4.78;;;1.73;;
49396;SDS011;35615;41.410;2.194;2023-05-10T03:06:01;4.95;;;1.27;;
49396;SDS011;35615;41.410;2.194;2023-05-10T03:08:29;3.63;;;1.60;;
49396;SDS011;35615;41.410;2.194;2023-05-10T03:14:07;5.38;;;1.35;;
49396;SDS011;35615;41.410;2.194;2023-05-10T03:16:42;4.30;;;1.92;;
49396;SDS011;35615;41.410;2.194;2023-05-10T03:19:17;7.60;;;3.85;;
49396;SDS011;35615;41.410;2.194;2023-05-10T03:21:53;8.05;;;3.40;;
49396;SDS011;35615;41.410;2.194;2023-05-10T03:24:27;13.65;;;5.22;;
49396;SDS011;35615;41.410;2.194;2023-05-10T03:26:59;14.43;;;4.38;;
49396;SDS011;35615;41.410;2.194;2023-05-10T03:29:30;8.15;;;4.00;;
49396;SDS011;35615;41.410;2.194;2023-05-10T03:32:02;10.23;;;4.90;;
49396;SDS011;35615;41.410;2.194;2023-05-10T03:34:31;11.85;;;4.53;;
49396;SDS011;35615;41.410;2.194;2023-05-10T03:37:08;11.18;;;4.20;;
49396;SDS011;35615;41.410;2.194;2023-05-10T03:39:35;7.22;;;3.38;;
49396;SDS011;35615;41.410;2.194;2023-05-10T03:42:05;6.78;;;3.30;;
49396;SDS011;35615;41.410;2.194;2023-05-10T03:44:35;9.13;;;3.05;;
49396;SDS011;35615;41.410;2.194;2023-05-10T03:47:03;5.35;;;2.67;;
49396;SDS011;35615;41.410;2.194;2023-05-10T03:49:31;6.10;;;1.75;;
49396;SDS011;35615;41.410;2.194;2023-05-10T03:51:59;2.28;;;1.73;;
49396;SDS011;35615;41.410;2.194;2023-05-10T03:54:26;2.08;;;1.55;;
49396;SDS011;35615;41.410;2.194;2023-05-10T03:56:54;3.00;;;1.85;;
49396;SDS011;35615;41.410;2.194;2023-05-10T03:59:23;5.53;;;1.67;;
49396;SDS011;35615;41.410;2.194;2023-05-10T04:01:51;2.25;;;1.40;;
49396;SDS011;35615;41.410;2.194;2023-05-10T04:04:18;4.88;;;1.27;;
49396;SDS011;35615;41.410;2.194;2023-05-10T04:06:48;4.15;;;1.73;;
49396;SDS011;35615;41.410;2.194;2023-05-10T04:09:16;3.47;;;1.52;;
49396;SDS011;35615;41.410;2.194;2023-05-10T04:11:43;3.40;;;1.27;;
49396;SDS011;35615;41.410;2.194;2023-05-10T04:14:10;4.82;;;1.38;;
49396;SDS011;35615;41.410;2.194;2023-05-10T04:16:37;5.07;;;1.77;;
49396;SDS011;35615;41.410;2.194;2023-05-10T04:19:05;4.75;;;1.00;;
49396;SDS011;35615;41.410;2.194;2023-05-10T04:21:35;2.25;;;1.05;;
49396;SDS011;35615;41.410;2.194;2023-05-10T04:24:06;4.57;;;1.38;;
49396;SDS011;35615;41.410;2.194;2023-05-10T04:26:35;3.13;;;1.38;;
49396;SDS011;35615;41.410;2.194;2023-05-10T04:29:05;5.35;;;1.23;;
49396;SDS011;35615;41.410;2.194;2023-05-10T04:31:32;3.78;;;1.35;;
49396;SDS011;35615;41.410;2.194;2023-05-10T04:33:59;4.38;;;1.38;;
49396;SDS011;35615;41.410;2.194;2023-05-10T04:36:29;2.90;;;1.48;;
49396;SDS011;35615;41.410;2.194;2023-05-10T04:38:56;3.10;;;1.40;;
49396;SDS011;35615;41.410;2.194;2023-05-10T04:41:23;2.75;;;1.45;;
49396;SDS011;35615;41.410;2.194;2023-05-10T04:43:55;1.63;;;1.42;;
49396;SDS011;35615;41.410;2.194;2023-05-10T04:46:23;4.35;;;1.60;;
49396;SDS011;35615;41.410;2.194;2023-05-10T04:48:50;4.65;;;1.60;;
49396;SDS011;35615;41.410;2.194;2023-05-10T04:51:17;3.15;;;1.50;;
49396;SDS011;35615;41.410;2.194;2023-05-10T04:53:44;4.03;;;1.55;;
49396;SDS011;35615;41.410;2.194;2023-05-10T04:56:31;4.05;;;1.80;;
49396;SDS011;35615;41.410;2.194;2023-05-10T04:58:58;6.55;;;1.60;;
49396;SDS011;35615;41.410;2.194;2023-05-10T05:01:27;3.35;;;1.50;;
49396;SDS011;35615;41.410;2.194;2023-05-10T05:03:55;3.67;;;1.52;;
49396;SDS011;35615;41.410;2.194;2023-05-10T05:06:23;3.95;;;1.63;;
49396;SDS011;35615;41.410;2.194;2023-05-10T05:08:51;4.30;;;1.45;;
49396;SDS011;35615;41.410;2.194;2023-05-10T05:11:18;1.98;;;1.27;;
49396;SDS011;35615;41.410;2.194;2023-05-10T05:13:46;6.18;;;1.58;;
49396;SDS011;35615;41.410;2.194;2023-05-10T05:16:16;5.25;;;1.38;;
49396;SDS011;35615;41.410;2.194;2023-05-10T05:18:57;6.65;;;1.77;;
49396;SDS011;35615;41.410;2.194;2023-05-10T05:21:34;3.25;;;1.20;;
49396;SDS011;35615;41.410;2.194;2023-05-10T05:24:07;9.63;;;1.48;;
49396;SDS011;35615;41.410;2.194;2023-05-10T05:26:47;3.67;;;1.42;;
49396;SDS011;35615;41.410;2.194;2023-05-10T05:29:22;5.85;;;1.98;;
49396;SDS011;35615;41.410;2.194;2023-05-10T05:32:03;8.60;;;1.63;;
49396;SDS011;35615;41.410;2.194;2023-05-10T05:34:48;6.60;;;1.80;;
49396;SDS011;35615;41.410;2.194;2023-05-10T05:37:20;4.72;;;1.42;;
49396;SDS011;35615;41.410;2.194;2023-05-10T05:39:59;4.35;;;1.20;;
49396;SDS011;35615;41.410;2.194;2023-05-10T05:42:35;4.55;;;1.20;;
49396;SDS011;35615;41.410;2.194;2023-05-10T05:45:14;4.50;;;1.38;;
49396;SDS011;35615;41.410;2.194;2023-05-10T05:47:53;4.13;;;1.40;;
49396;SDS011;35615;41.410;2.194;2023-05-10T05:50:23;7.13;;;1.80;;
49396;SDS011;35615;41.410;2.194;2023-05-10T05:52:59;7.45;;;1.45;;
49396;SDS011;35615;41.410;2.194;2023-05-10T05:55:29;7.07;;;1.52;;
49396;SDS011;35615;41.410;2.194;2023-05-10T05:57:59;6.95;;;1.35;;
49396;SDS011;35615;41.410;2.194;2023-05-10T06:00:36;3.83;;;1.23;;
49396;SDS011;35615;41.410;2.194;2023-05-10T06:03:17;7.15;;;1.40;;
49396;SDS011;35615;41.410;2.194;2023-05-10T06:05:55;6.18;;;1.30;;
49396;SDS011;35615;41.410;2.194;2023-05-10T06:08:33;6.72;;;1.25;;
49396;SDS011;35615;41.410;2.194;2023-05-10T06:11:04;2.35;;;1.13;;
49396;SDS011;35615;41.410;2.194;2023-05-10T06:13:37;6.18;;;1.95;;
49396;SDS011;35615;41.410;2.194;2023-05-10T06:16:13;5.82;;;2.13;;
49396;SDS011;35615;41.410;2.194;2023-05-10T06:18:44;2.92;;;1.08;;
49396;SDS011;35615;41.410;2.194;2023-05-10T06:24:00;5.20;;;1.20;;
49396;SDS011;35615;41.410;2.194;2023-05-10T06:26:34;6.95;;;1.30;;
49396;SDS011;35615;41.410;2.194;2023-05-10T06:29:04;6.10;;;1.40;;
49396;SDS011;35615;41.410;2.194;2023-05-10T06:31:32;7.72;;;1.27;;
49396;SDS011;35615;41.410;2.194;2023-05-10T06:34:04;5.63;;;1.38;;
49396;SDS011;35615;41.410;2.194;2023-05-10T06:36:34;8.68;;;1.30;;
49396;SDS011;35615;41.410;2.194;2023-05-10T06:39:10;6.82;;;1.60;;
49396;SDS011;35615;41.410;2.194;2023-05-10T06:41:38;5.47;;;1.27;;
49396;SDS011;35615;41.410;2.194;2023-05-10T06:44:06;5.47;;;1.52;;
49396;SDS011;35615;41.410;2.194;2023-05-10T06:46:39;8.15;;;1.50;;
49396;SDS011;35615;41.410;2.194;2023-05-10T06:49:13;6.50;;;1.45;;
49396;SDS011;35615;41.410;2.194;2023-05-10T06:51:45;5.65;;;1.42;;
49396;SDS011;35615;41.410;2.194;2023-05-10T06:54:24;5.07;;;1.20;;
49396;SDS011;35615;41.410;2.194;2023-05-10T06:57:04;11.73;;;1.40;;
49396;SDS011;35615;41.410;2.194;2023-05-10T06:59:48;2.65;;;2.05;;
49396;SDS011;35615;41.410;2.194;2023-05-10T07:02:23;9.02;;;1.52;;
49396;SDS011;35615;41.410;2.194;2023-05-10T07:05:00;7.72;;;1.17;;
49396;SDS011;35615;41.410;2.194;2023-05-10T07:07:32;5.45;;;1.20;;
49396;SDS011;35615;41.410;2.194;2023-05-10T07:10:00;7.40;;;1.23;;
49396;SDS011;35615;41.410;2.194;2023-05-10T07:12:37;4.80;;;1.20;;
49396;SDS011;35615;41.410;2.194;2023-05-10T07:15:05;5.85;;;1.38;;
49396;SDS011;35615;41.410;2.194;2023-05-10T07:17:37;7.40;;;1.30;;
49396;SDS011;35615;41.410;2.194;2023-05-10T07:20:10;4.63;;;1.65;;
49396;SDS011;35615;41.410;2.194;2023-05-10T07:22:38;11.23;;;1.60;;
49396;SDS011;35615;41.410;2.194;2023-05-10T07:25:10;9.27;;;1.48;;
49396;SDS011;35615;41.410;2.194;2023-05-10T07:27:45;6.80;;;1.85;;
49396;SDS011;35615;41.410;2.194;2023-05-10T07:30:12;2.38;;;1.30;;
49396;SDS011;35615;41.410;2.194;2023-05-10T07:32:50;8.30;;;1.27;;
49396;SDS011;35615;41.410;2.194;2023-05-10T07:35:26;8.90;;;1.20;;
49396;SDS011;35615;41.410;2.194;2023-05-10T07:37:55;4.00;;;1.48;;
49396;SDS011;35615;41.410;2.194;2023-05-10T07:40:30;6.65;;;1.23;;
49396;SDS011;35615;41.410;2.194;2023-05-10T07:42:58;8.52;;;1.40;;
49396;SDS011;35615;41.410;2.194;2023-05-10T07:45:36;6.93;;;1.60;;
49396;SDS011;35615;41.410;2.194;2023-05-10T07:48:03;8.57;;;1.40;;
49396;SDS011;35615;41.410;2.194;2023-05-10T07:50:33;7.07;;;1.30;;
49396;SDS011;35615;41.410;2.194;2023-05-10T07:53:00;9.82;;;1.63;;
49396;SDS011;35615;41.410;2.194;2023-05-10T07:55:37;12.30;;;1.92;;
49396;SDS011;35615;41.410;2.194;2023-05-10T07:58:05;4.63;;;1.58;;
49396;SDS011;35615;41.410;2.194;2023-05-10T08:00:34;13.65;;;1.95;;
49396;SDS011;35615;41.410;2.194;2023-05-10T08:03:08;6.65;;;1.40;;
49396;SDS011;35615;41.410;2.194;2023-05-10T08:05:44;7.97;;;1.65;;
49396;SDS011;35615;41.410;2.194;2023-05-10T08:08:11;4.32;;;1.65;;
49396;SDS011;35615;41.410;2.194;2023-05-10T08:10:39;5.22;;;1.35;;
49396;SDS011;35615;41.410;2.194;2023-05-10T08:13:07;11.55;;;1.40;;
49396;SDS011;35615;41.410;2.194;2023-05-10T08:15:34;6.25;;;1.70;;
49396;SDS011;35615;41.410;2.194;2023-05-10T08:18:06;9.32;;;2.28;;
49396;SDS011;35615;41.410;2.194;2023-05-10T08:20:39;5.30;;;1.40;;
49396;SDS011;35615;41.410;2.194;2023-05-10T08:23:12;6.10;;;1.50;;
49396;SDS011;35615;41.410;2.194;2023-05-10T08:25:45;5.35;;;1.27;;
49396;SDS011;35615;41.410;2.194;2023-05-10T08:28:15;7.30;;;1.90;;
49396;SDS011;35615;41.410;2.194;2023-05-10T08:30:45;5.28;;;1.63;;
49396;SDS011;35615;41.410;2.194;2023-05-10T08:33:37;8.00;;;1.60;;
49396;SDS011;35615;41.410;2.194;2023-05-10T08:36:13;4.60;;;1.77;;
49396;SDS011;35615;41.410;2.194;2023-05-10T08:38:51;5.05;;;1.50;;
49396;SDS011;35615;41.410;2.194;2023-05-10T08:41:27;5.88;;;1.80;;
49396;SDS011;35615;41.410;2.194;2023-05-10T08:43:56;8.23;;;1.92;;
49396;SDS011;35615;41.410;2.194;2023-05-10T08:46:25;5.85;;;1.88;;
49396;SDS011;35615;41.410;2.194;2023-05-10T08:49:24;6.18;;;1.60;;
49396;SDS011;35615;41.410;2.194;2023-05-10T08:52:01;7.35;;;1.77;;
49396;SDS011;35615;41.410;2.194;2023-05-10T08:54:31;5.95;;;2.13;;
49396;SDS011;35615;41.410;2.194;2023-05-10T08:57:04;11.35;;;2.10;;
49396;SDS011;35615;41.410;2.194;2023-05-10T08:59:39;9.80;;;2.60;;
49396;SDS011;35615;41.410;2.194;2023-05-10T09:02:07;9.15;;;3.38;;
49396;SDS011;35615;41.410;2.194;2023-05-10T09:04:46;10.45;;;2.90;;
49396;SDS011;35615;41.410;2.194;2023-05-10T09:07:19;6.53;;;2.83;;
49396;SDS011;35615;41.410;2.194;2023-05-10T09:09:47;10.85;;;4.28;;
49396;SDS011;35615;41.410;2.194;2023-05-10T09:12:18;14.23;;;3.08;;
49396;SDS011;35615;41.410;2.194;2023-05-10T09:14:48;9.30;;;3.17;;
49396;SDS011;35615;41.410;2.194;2023-05-10T09:17:19;7.88;;;3.25;;
49396;SDS011;35615;41.410;2.194;2023-05-10T09:20:04;9.98;;;2.92;;
49396;SDS011;35615;41.410;2.194;2023-05-10T09:22:33;8.10;;;2.10;;
49396;SDS011;35615;41.410;2.194;2023-05-10T09:27:35;9.95;;;1.98;;
49396;SDS011;35615;41.410;2.194;2023-05-10T09:30:06;6.18;;;2.65;;
49396;SDS011;35615;41.410;2.194;2023-05-10T09:32:39;12.02;;;1.95;;
49396;SDS011;35615;41.410;2.194;2023-05-10T09:35:14;11.73;;;2.50;;
49396;SDS011;35615;41.410;2.194;2023-05-10T09:37:47;12.02;;;2.97;;
49396;SDS011;35615;41.410;2.194;2023-05-10T09:40:19;8.68;;;2.40;;
49396;SDS011;35615;41.410;2.194;2023-05-10T09:42:54;17.98;;;2.17;;
49396;SDS011;35615;41.410;2.194;2023-05-10T09:45:33;11.88;;;2.20;;
49396;SDS011;35615;41.410;2.194;2023-05-10T09:48:07;10.18;;;1.95;;
49396;SDS011;35615;41.410;2.194;2023-05-10T09:50:40;6.07;;;2.17;;
49396;SDS011;35615;41.410;2.194;2023-05-10T09:53:14;10.63;;;2.08;;
49396;SDS011;35615;41.410;2.194;2023-05-10T09:55:45;11.02;;;2.72;;
49396;SDS011;35615;41.410;2.194;2023-05-10T09:58:19;14.00;;;2.17;;
49396;SDS011;35615;41.410;2.194;2023-05-10T10:00:52;11.23;;;2.35;;
49396;SDS011;35615;41.410;2.194;2023-05-10T10:03:26;12.52;;;2.47;;
49396;SDS011;35615;41.410;2.194;2023-05-10T10:05:56;11.98;;;2.55;;
49396;SDS011;35615;41.410;2.194;2023-05-10T10:08:28;13.02;;;2.80;;
49396;SDS011;35615;41.410;2.194;2023-05-10T10:11:00;18.17;;;3.03;;
49396;SDS011;35615;41.410;2.194;2023-05-10T10:13:43;15.38;;;2.65;;
49396;SDS011;35615;41.410;2.194;2023-05-10T10:22:14;15.73;;;2.25;;
49396;SDS011;35615;41.410;2.194;2023-05-10T10:24:53;16.20;;;3.43;;
49396;SDS011;35615;41.410;2.194;2023-05-10T10:30:47;14.52;;;2.47;;
49396;SDS011;35615;41.410;2.194;2023-05-10T10:36:22;11.27;;;2.90;;
49396;SDS011;35615;41.410;2.194;2023-05-10T10:39:01;12.18;;;2.47;;
49396;SDS011;35615;41.410;2.194;2023-05-10T10:41:57;6.63;;;1.73;;
49396;SDS011;35615;41.410;2.194;2023-05-10T10:44:36;8.30;;;1.95;;
49396;SDS011;35615;41.410;2.194;2023-05-10T10:50:13;6.82;;;1.73;;
49396;SDS011;35615;41.410;2.194;2023-05-10T10:52:46;11.90;;;2.33;;
49396;SDS011;35615;41.410;2.194;2023-05-10T10:55:25;6.35;;;1.75;;
49396;SDS011;35615;41.410;2.194;2023-05-10T10:57:57;15.68;;;2.28;;
49396;SDS011;35615;41.410;2.194;2023-05-10T11:00:41;15.13;;;2.80;;
49396;SDS011;35615;41.410;2.194;2023-05-10T11:03:18;9.73;;;1.75;;
49396;SDS011;35615;41.410;2.194;2023-05-10T11:05:57;14.20;;;3.03;;
49396;SDS011;35615;41.410;2.194;2023-05-10T11:08:46;9.52;;;2.38;;
49396;SDS011;35615;41.410;2.194;2023-05-10T11:11:20;6.55;;;1.65;;
49396;SDS011;35615;41.410;2.194;2023-05-10T11:14:02;7.47;;;2.28;;
49396;SDS011;35615;41.410;2.194;2023-05-10T11:16:41;8.57;;;1.80;;
49396;SDS011;35615;41.410;2.194;2023-05-10T11:19:24;10.30;;;2.42;;
49396;SDS011;35615;41.410;2.194;2023-05-10T11:22:17;6.95;;;1.67;;
49396;SDS011;35615;41.410;2.194;2023-05-10T11:25:27;8.48;;;2.00;;
49396;SDS011;35615;41.410;2.194;2023-05-10T11:28:00;8.70;;;1.83;;
49396;SDS011;35615;41.410;2.194;2023-05-10T11:30:35;15.70;;;2.30;;
49396;SDS011;35615;41.410;2.194;2023-05-10T11:33:04;9.35;;;1.90;;
49396;SDS011;35615;41.410;2.194;2023-05-10T11:35:41;13.23;;;2.20;;
49396;SDS011;35615;41.410;2.194;2023-05-10T11:40:42;5.25;;;1.80;;
49396;SDS011;35615;41.410;2.194;2023-05-10T11:43:12;12.25;;;2.17;;
49396;SDS011;35615;41.410;2.194;2023-05-10T11:45:44;8.10;;;1.85;;
49396;SDS011;35615;41.410;2.194;2023-05-10T11:48:15;9.50;;;2.10;;
49396;SDS011;35615;41.410;2.194;2023-05-10T11:50:49;8.75;;;2.13;;
49396;SDS011;35615;41.410;2.194;2023-05-10T11:53:19;15.52;;;3.40;;
49396;SDS011;35615;41.410;2.194;2023-05-10T11:55:53;17.90;;;2.60;;
49396;SDS011;35615;41.410;2.194;2023-05-10T11:58:31;9.48;;;2.65;;
49396;SDS011;35615;41.410;2.194;2023-05-10T12:01:06;16.48;;;2.78;;
49396;SDS011;35615;41.410;2.194;2023-05-10T12:03:37;14.48;;;2.10;;
49396;SDS011;35615;41.410;2.194;2023-05-10T12:06:21;23.33;;;2.40;;
49396;SDS011;35615;41.410;2.194;2023-05-10T12:08:49;10.23;;;2.42;;
49396;SDS011;35615;41.410;2.194;2023-05-10T12:11:23;18.15;;;2.30;;
49396;SDS011;35615;41.410;2.194;2023-05-10T12:14:09;8.77;;;1.60;;
49396;SDS011;35615;41.410;2.194;2023-05-10T12:16:38;12.75;;;2.08;;
49396;SDS011;35615;41.410;2.194;2023-05-10T12:24:55;10.98;;;2.78;;
49396;SDS011;35615;41.410;2.194;2023-05-10T12:27:38;8.90;;;1.90;;
49396;SDS011;35615;41.410;2.194;2023-05-10T12:30:33;7.55;;;2.10;;
49396;SDS011;35615;41.410;2.194;2023-05-10T12:33:24;9.88;;;1.95;;
49396;SDS011;35615;41.410;2.194;2023-05-10T12:36:04;10.50;;;2.75;;
49396;SDS011;35615;41.410;2.194;2023-05-10T12:38:50;11.82;;;2.58;;
49396;SDS011;35615;41.410;2.194;2023-05-10T12:41:34;8.98;;;2.17;;
49396;SDS011;35615;41.410;2.194;2023-05-10T12:44:21;8.55;;;2.30;;
49396;SDS011;35615;41.410;2.194;2023-05-10T12:46:56;11.70;;;2.13;;
49396;SDS011;35615;41.410;2.194;2023-05-10T12:49:26;10.90;;;2.42;;
49396;SDS011;35615;41.410;2.194;2023-05-10T12:52:05;10.07;;;2.03;;
49396;SDS011;35615;41.410;2.194;2023-05-10T12:54:39;11.25;;;2.40;;
49396;SDS011;35615;41.410;2.194;2023-05-10T12:57:12;9.65;;;2.03;;
49396;SDS011;35615;41.410;2.194;2023-05-10T12:59:41;15.23;;;1.88;;
49396;SDS011;35615;41.410;2.194;2023-05-10T13:02:14;13.80;;;2.13;;
49396;SDS011;35615;41.410;2.194;2023-05-10T13:04:51;12.77;;;2.22;;
49396;SDS011;35615;41.410;2.194;2023-05-10T13:07:28;14.23;;;2.20;;
49396;SDS011;35615;41.410;2.194;2023-05-10T13:10:12;12.65;;;2.35;;
49396;SDS011;35615;41.410;2.194;2023-05-10T13:12:39;11.43;;;2.60;;
49396;SDS011;35615;41.410;2.194;2023-05-10T13:15:15;8.20;;;2.08;;
49396;SDS011;35615;41.410;2.194;2023-05-10T13:17:55;7.45;;;1.95;;
49396;SDS011;35615;41.410;2.194;2023-05-10T13:20:34;14.90;;;2.38;;
49396;SDS011;35615;41.410;2.194;2023-05-10T13:23:10;10.55;;;1.92;;
49396;SDS011;35615;41.410;2.194;2023-05-10T13:25:37;9.07;;;2.17;;
49396;SDS011;35615;41.410;2.194;2023-05-10T13:28:07;10.35;;;1.75;;
49396;SDS011;35615;41.410;2.194;2023-05-10T13:30:37;14.43;;;2.50;;
49396;SDS011;35615;41.410;2.194;2023-05-10T13:33:07;15.77;;;2.55;;
49396;SDS011;35615;41.410;2.194;2023-05-10T13:35:34;9.00;;;1.85;;
49396;SDS011;35615;41.410;2.194;2023-05-10T13:38:06;10.75;;;2.08;;
49396;SDS011;35615;41.410;2.194;2023-05-10T13:40:34;9.13;;;1.95;;
49396;SDS011;35615;41.410;2.194;2023-05-10T13:43:02;14.15;;;2.33;;
49396;SDS011;35615;41.410;2.194;2023-05-10T13:45:35;9.53;;;2.13;;
49396;SDS011;35615;41.410;2.194;2023-05-10T13:48:18;11.73;;;2.55;;
49396;SDS011;35615;41.410;2.194;2023-05-10T13:50:48;11.15;;;1.80;;
49396;SDS011;35615;41.410;2.194;2023-05-10T13:53:16;15.40;;;3.35;;
49396;SDS011;35615;41.410;2.194;2023-05-10T13:55:51;11.13;;;2.20;;
49396;SDS011;35615;41.410;2.194;2023-05-10T13:58:21;10.15;;;2.45;;
49396;SDS011;35615;41.410;2.194;2023-05-10T14:00:51;9.70;;;1.80;;
49396;SDS011;35615;41.410;2.194;2023-05-10T14:03:32;7.68;;;1.48;;
49396;SDS011;35615;41.410;2.194;2023-05-10T14:06:00;15.07;;;1.98;;
49396;SDS011;35615;41.410;2.194;2023-05-10T14:08:36;19.13;;;2.40;;
49396;SDS011;35615;41.410;2.194;2023-05-10T14:11:09;18.20;;;2.50;;
49396;SDS011;35615;41.410;2.194;2023-05-10T14:14:03;11.10;;;2.95;;
49396;SDS011;35615;41.410;2.194;2023-05-10T14:16:36;9.18;;;2.33;;
49396;SDS011;35615;41.410;2.194;2023-05-10T14:19:19;9.30;;;2.05;;
49396;SDS011;35615;41.410;2.194;2023-05-10T14:21:48;19.88;;;2.67;;
49396;SDS011;35615;41.410;2.194;2023-05-10T14:24:23;12.60;;;2.38;;
49396;SDS011;35615;41.410;2.194;2023-05-10T14:27:00;17.42;;;1.90;;
49396;SDS011;35615;41.410;2.194;2023-05-10T14:29:39;13.32;;;2.33;;
49396;SDS011;35615;41.410;2.194;2023-05-10T14:32:07;11.05;;;2.08;;
49396;SDS011;35615;41.410;2.194;2023-05-10T14:37:48;13.25;;;2.13;;
49396;SDS011;35615;41.410;2.194;2023-05-10T14:40:21;18.05;;;2.67;;
49396;SDS011;35615;41.410;2.194;2023-05-10T14:42:58;14.38;;;2.67;;
49396;SDS011;35615;41.410;2.194;2023-05-10T14:45:30;8.50;;;1.95;;
49396;SDS011;35615;41.410;2.194;2023-05-10T14:47:58;14.02;;;2.42;;
49396;SDS011;35615;41.410;2.194;2023-05-10T14:50:34;17.10;;;2.75;;
49396;SDS011;35615;41.410;2.194;2023-05-10T14:53:49;15.05;;;2.78;;
49396;SDS011;35615;41.410;2.194;2023-05-10T14:56:31;19.50;;;3.13;;
49396;SDS011;35615;41.410;2.194;2023-05-10T14:59:21;20.38;;;2.58;;
49396;SDS011;35615;41.410;2.194;2023-05-10T15:02:08;14.50;;;2.63;;
49396;SDS011;35615;41.410;2.194;2023-05-10T15:04:55;17.27;;;2.72;;
49396;SDS011;35615;41.410;2.194;2023-05-10T15:07:37;9.90;;;2.65;;
49396;SDS011;35615;41.410;2.194;2023-05-10T15:10:19;15.13;;;3.10;;
49396;SDS011;35615;41.410;2.194;2023-05-10T15:12:47;23.02;;;3.10;;
49396;SDS011;35615;41.410;2.194;2023-05-10T15:15:20;19.38;;;3.65;;
49396;SDS011;35615;41.410;2.194;2023-05-10T15:17:50;17.30;;;2.45;;
49396;SDS011;35615;41.410;2.194;2023-05-10T15:20:18;13.98;;;2.83;;
49396;SDS011;35615;41.410;2.194;2023-05-10T15:22:45;22.30;;;2.58;;
49396;SDS011;35615;41.410;2.194;2023-05-10T15:25:16;14.07;;;2.53;;
49396;SDS011;35615;41.410;2.194;2023-05-10T15:27:46;11.43;;;2.47;;
49396;SDS011;35615;41.410;2.194;2023-05-10T15:30:19;21.83;;;2.57;;
49396;SDS011;35615;41.410;2.194;2023-05-10T15:32:52;15.98;;;2.92;;
49396;SDS011;35615;41.410;2.194;2023-05-10T15:35:21;13.45;;;2.20;;
49396;SDS011;35615;41.410;2.194;2023-05-10T15:37:51;16.10;;;2.92;;
49396;SDS011;35615;41.410;2.194;2023-05-10T15:40:21;11.77;;;2.15;;
49396;SDS011;35615;41.410;2.194;2023-05-10T15:42:49;14.35;;;2.75;;
49396;SDS011;35615;41.410;2.194;2023-05-10T15:45:24;13.18;;;2.45;;
49396;SDS011;35615;41.410;2.194;2023-05-10T15:47:54;13.98;;;2.55;;
49396;SDS011;35615;41.410;2.194;2023-05-10T15:50:29;11.10;;;2.55;;
49396;SDS011;35615;41.410;2.194;2023-05-10T15:53:04;14.05;;;2.22;;
49396;SDS011;35615;41.410;2.194;2023-05-10T15:55:34;11.73;;;2.35;;
49396;SDS011;35615;41.410;2.194;2023-05-10T15:58:05;20.60;;;2.63;;
49396;SDS011;35615;41.410;2.194;2023-05-10T16:00:36;14.82;;;2.70;;
49396;SDS011;35615;41.410;2.194;2023-05-10T16:03:04;14.77;;;2.47;;
49396;SDS011;35615;41.410;2.194;2023-05-10T16:05:33;11.05;;;2.38;;